createdAt,value
2023-05-19T00:02:02.205Z,102539.50
2023-05-19T00:04:31.629Z,102541.97
2023-05-19T00:07:00.654Z,102535.13
2023-05-19T00:09:29.507Z,102538.34
2023-05-19T00:11:58.930Z,102534.19
2023-05-19T00:14:28.254Z,102540.28
2023-05-19T00:16:57.654Z,102537.34
2023-05-19T00:19:27.055Z,102534.66
2023-05-19T00:21:56.202Z,102538.56
2023-05-19T00:24:24.992Z,102534.44
2023-05-19T00:26:54.306Z,102526.91
2023-05-19T00:29:23.382Z,102527.41
2023-05-19T00:31:51.897Z,102520.59
2023-05-19T00:34:21.251Z,102516.69
2023-05-19T00:36:49.672Z,102514.50
2023-05-19T00:39:17.303Z,102513.03
2023-05-19T00:41:45.498Z,102512.31
2023-05-19T00:44:14.710Z,102516.94
2023-05-19T00:46:43.652Z,102515.50
2023-05-19T00:49:12.408Z,102518.63
2023-05-19T00:51:41.516Z,102517.19
2023-05-19T00:54:09.335Z,102507.69
2023-05-19T00:56:39.302Z,102515.75
2023-05-19T00:59:07.032Z,102514.28
2023-05-19T01:01:36.446Z,102512.06
2023-05-19T01:04:07.018Z,102515.28
2023-05-19T01:06:35.593Z,102513.81
2023-05-19T01:09:05.108Z,102517.94
2023-05-19T01:11:33.193Z,102523.06
2023-05-19T01:14:02.113Z,102523.06
2023-05-19T01:16:31.012Z,102516.28
2023-05-19T01:18:59.991Z,102516.03
2023-05-19T01:21:28.380Z,102518.72
2023-05-19T01:23:57.325Z,102517.97
2023-05-19T01:26:26.093Z,102517.22
2023-05-19T01:28:53.890Z,102526.53
2023-05-19T01:31:22.948Z,102514.34
2023-05-19T01:33:52.319Z,102524.31
2023-05-19T01:36:21.063Z,102510.69
2023-05-19T01:38:49.929Z,102509.97
2023-05-19T01:41:19.209Z,102509.97
2023-05-19T01:43:48.164Z,102508.50
2023-05-19T01:46:17.289Z,102508.50
2023-05-19T01:48:46.626Z,102500.97
2023-05-19T01:51:16.135Z,102498.81
2023-05-19T01:53:45.076Z,102502.69
2023-05-19T01:56:14.040Z,102494.66
2023-05-19T01:58:42.498Z,102495.16
2023-05-19T02:01:11.977Z,102491.75
2023-05-19T02:03:40.988Z,102489.06
2023-05-19T02:06:10.281Z,102495.38
2023-05-19T02:08:39.281Z,102497.59
2023-05-19T02:11:09.440Z,102483.97
2023-05-19T02:13:38.452Z,102487.84
2023-05-19T02:16:06.840Z,102479.09
2023-05-19T02:18:35.812Z,102492.47
2023-05-19T02:21:04.825Z,102486.41
2023-05-19T02:23:33.277Z,102483.72
2023-05-19T02:26:01.696Z,102485.66
2023-05-19T02:28:30.635Z,102485.66
2023-05-19T02:30:59.731Z,102484.19
2023-05-19T02:33:29.887Z,102485.66
2023-05-19T02:35:58.849Z,102480.31
2023-05-19T02:38:28.128Z,102478.84
2023-05-19T02:40:57.556Z,102469.38
2023-05-19T02:43:26.594Z,102470.59
2023-05-19T02:45:55.578Z,102466.72
2023-05-19T02:48:24.440Z,102470.59
2023-05-19T02:50:53.435Z,102463.78
2023-05-19T02:53:21.974Z,102456.97
2023-05-19T02:55:50.401Z,102462.34
2023-05-19T02:58:18.987Z,102464.75
2023-05-19T03:00:47.921Z,102460.88
2023-05-19T03:03:16.661Z,102460.88
2023-05-19T03:05:45.046Z,102460.63
2023-05-19T03:08:13.914Z,102463.31
2023-05-19T03:10:42.940Z,102455.06
2023-05-19T03:13:11.394Z,102455.06
2023-05-19T03:15:40.295Z,102461.59
2023-05-19T03:18:09.370Z,102462.13
2023-05-19T03:20:40.255Z,102450.69
2023-05-19T03:23:10.582Z,102452.13
2023-05-19T03:25:39.037Z,102457.50
2023-05-19T03:28:08.397Z,102447.75
2023-05-19T03:30:37.829Z,102453.09
2023-05-19T03:33:19.764Z,102456.31
2023-05-19T03:35:48.862Z,102455.56
2023-05-19T03:38:17.845Z,102458.25
2023-05-19T03:40:53.342Z,102460.19
2023-05-19T03:43:22.030Z,102455.09
2023-05-19T03:45:56.670Z,102458.72
2023-05-19T03:48:44.519Z,102466.03
2023-05-19T03:51:22.465Z,102464.81
2023-05-19T03:53:54.691Z,102471.38
2023-05-19T03:56:23.754Z,102470.63
2023-05-19T03:58:52.541Z,102463.34
2023-05-19T04:01:21.904Z,102462.59
2023-05-19T04:03:57.491Z,102469.44
2023-05-19T04:06:26.511Z,102463.34
2023-05-19T04:08:55.435Z,102466.28
2023-05-19T04:11:24.454Z,102459.47
2023-05-19T04:13:53.410Z,102460.91
2023-05-19T04:16:22.181Z,102465.03
2023-05-19T04:18:51.117Z,102465.03
2023-05-19T04:21:20.068Z,102469.91
2023-05-19T04:23:49.451Z,102469.41
2023-05-19T04:26:18.927Z,102467.47
2023-05-19T04:28:47.944Z,102470.88
2023-05-19T04:31:18.737Z,102468.19
2023-05-19T04:33:47.744Z,102471.13
2023-05-19T04:36:16.928Z,102467.22
2023-05-19T04:38:46.277Z,102464.75
2023-05-19T04:41:14.808Z,102459.41
2023-05-19T04:43:44.168Z,102466.25
2023-05-19T04:46:14.593Z,102462.34
2023-05-19T04:48:45.518Z,102463.03
2023-05-19T04:51:13.872Z,102461.09
2023-05-19T04:53:42.630Z,102468.13
2023-05-19T04:56:12.578Z,102470.34
2023-05-19T04:58:42.031Z,102465.69
2023-05-19T05:01:11.481Z,102480.56
2023-05-19T05:03:40.643Z,102478.63
2023-05-19T05:06:08.991Z,102476.63
2023-05-19T05:08:37.317Z,102482.22
2023-05-19T05:11:06.353Z,102477.63
2023-05-19T05:13:36.419Z,102479.09
2023-05-19T05:16:05.306Z,102483.94
2023-05-19T05:18:33.874Z,102479.53
2023-05-19T05:21:02.418Z,102484.41
2023-05-19T05:23:30.695Z,102490.00
2023-05-19T05:25:58.965Z,102485.38
2023-05-19T05:28:27.771Z,102488.28
2023-05-19T05:30:56.807Z,102485.09
2023-05-19T05:33:25.551Z,102486.56
2023-05-19T05:35:54.677Z,102483.41
2023-05-19T05:38:24.032Z,102492.41
2023-05-19T05:40:52.663Z,102476.31
2023-05-19T05:43:21.505Z,102483.34
2023-05-19T05:45:56.524Z,102474.84
2023-05-19T05:48:25.651Z,102479.47
2023-05-19T05:50:54.889Z,102478.25
2023-05-19T05:53:26.927Z,102475.78
2023-05-19T05:55:56.315Z,102478.72
2023-05-19T05:58:28.817Z,102477.47
2023-05-19T06:00:57.606Z,102477.72
2023-05-19T06:03:27.717Z,102480.88
2023-05-19T06:06:00.422Z,102479.63
2023-05-19T06:08:29.520Z,102482.06
2023-05-19T06:10:59.187Z,102487.66
2023-05-19T06:13:30.352Z,102485.91
2023-05-19T06:16:01.879Z,102482.25
2023-05-19T06:18:34.643Z,102477.13
2023-05-19T06:21:03.167Z,102490.72
2023-05-19T06:23:31.578Z,102482.19
2023-05-19T06:26:01.048Z,102492.66
2023-05-19T06:28:30.157Z,102484.88
2023-05-19T06:30:59.279Z,102489.22
2023-05-19T06:33:50.720Z,102495.03
2023-05-19T06:36:19.369Z,102486.00
2023-05-19T06:38:49.314Z,102478.44
2023-05-19T06:41:18.142Z,102481.56
2023-05-19T06:43:48.705Z,102487.38
2023-05-19T06:46:16.516Z,102485.13
2023-05-19T06:48:45.397Z,102485.59
2023-05-19T06:51:14.431Z,102486.03
2023-05-19T06:53:43.525Z,102485.75
2023-05-19T06:56:13.188Z,102486.25
2023-05-19T06:58:42.152Z,102492.78
2023-05-19T07:01:12.286Z,102487.16
2023-05-19T07:03:46.231Z,102495.13
2023-05-19T07:06:16.086Z,102492.69
2023-05-19T07:08:44.709Z,102499.94
2023-05-19T07:11:13.747Z,102492.59
2023-05-19T07:13:43.810Z,102486.41
2023-05-19T07:16:12.500Z,102489.53
2023-05-19T07:18:41.257Z,102497.56
2023-05-19T07:21:12.427Z,102497.28
2023-05-19T07:23:41.505Z,102493.78
2023-05-19T07:26:10.313Z,102498.38
2023-05-19T07:28:41.627Z,102492.25
2023-05-19T07:31:11.469Z,102490.22
2023-05-19T07:33:44.374Z,102488.19
2023-05-19T07:36:13.318Z,102486.16
2023-05-19T07:38:42.651Z,102488.25
2023-05-19T07:41:11.598Z,102486.91
2023-05-19T07:43:41.035Z,102486.31
2023-05-19T07:46:10.257Z,102491.31
2023-05-19T07:48:39.710Z,102478.44
2023-05-19T07:51:08.585Z,102476.34
2023-05-19T07:53:37.897Z,102477.41
2023-05-19T07:56:07.377Z,102469.25
2023-05-19T07:58:36.317Z,102466.44
2023-05-19T08:01:05.602Z,102470.22
2023-05-19T08:03:40.219Z,102478.31
2023-05-19T08:06:09.056Z,102473.16
2023-05-19T08:08:37.920Z,102465.09
2023-05-19T08:11:07.309Z,102459.50
2023-05-19T08:13:36.935Z,102467.03
2023-05-19T08:16:06.541Z,102457.00
2023-05-19T08:18:36.139Z,102452.84
2023-05-19T08:21:05.246Z,102451.34
2023-05-19T08:23:34.600Z,102449.84
2023-05-19T08:26:03.501Z,102453.94
2023-05-19T08:28:32.810Z,102452.94
2023-05-19T08:31:02.315Z,102449.88
2023-05-19T08:33:31.610Z,102449.75
2023-05-19T08:36:00.585Z,102444.00
2023-05-19T08:38:28.865Z,102447.97
2023-05-19T08:40:58.034Z,102445.22
2023-05-19T08:43:26.438Z,102444.88
2023-05-19T08:45:55.918Z,102445.56
2023-05-19T08:48:25.228Z,102425.19
2023-05-19T08:50:54.764Z,102437.22
2023-05-19T08:53:33.034Z,102424.75
2023-05-19T08:56:02.723Z,102431.31
2023-05-19T08:58:31.430Z,102431.91
2023-05-19T09:01:00.256Z,102432.53
2023-05-19T09:03:29.898Z,102430.47
2023-05-19T09:05:58.985Z,102431.94
2023-05-19T09:08:28.029Z,102432.25
2023-05-19T09:10:57.384Z,102427.00
2023-05-19T09:13:26.836Z,102433.31
2023-05-19T09:15:55.805Z,102430.34
2023-05-19T09:18:24.599Z,102424.59
2023-05-19T09:20:53.628Z,102417.53
2023-05-19T09:23:22.930Z,102404.84
2023-05-19T09:25:51.821Z,102422.66
2023-05-19T09:28:21.222Z,102415.00
2023-05-19T09:30:50.080Z,102416.34
2023-05-19T09:33:18.903Z,102407.13
2023-05-19T09:35:49.423Z,102406.56
2023-05-19T09:38:19.477Z,102412.13
2023-05-19T09:40:47.788Z,102419.31
2023-05-19T09:43:17.236Z,102406.16
2023-05-19T09:45:46.783Z,102417.06
2023-05-19T09:48:16.166Z,102412.84
2023-05-19T09:50:45.248Z,102416.38
2023-05-19T09:53:13.549Z,102410.91
2023-05-19T09:55:42.899Z,102413.44
2023-05-19T09:58:12.781Z,102414.03
2023-05-19T10:00:42.179Z,102414.63
2023-05-19T10:03:11.634Z,102405.91
2023-05-19T10:05:40.589Z,102402.13
2023-05-19T10:08:10.108Z,102406.19
2023-05-19T10:10:39.678Z,102406.09
2023-05-19T10:13:09.123Z,102404.78
2023-05-19T10:15:50.037Z,102399.56
2023-05-19T10:18:26.545Z,102394.56
2023-05-19T10:20:55.100Z,102389.34
2023-05-19T10:23:23.398Z,102394.91
2023-05-19T10:25:52.279Z,102396.47
2023-05-19T10:28:21.546Z,102388.25
2023-05-19T10:30:51.062Z,102392.16
2023-05-19T10:33:20.559Z,102373.84
2023-05-19T10:35:49.544Z,102381.31
2023-05-19T10:38:18.909Z,102370.91
2023-05-19T10:40:47.771Z,102369.69
2023-05-19T10:43:16.717Z,102373.25
2023-05-19T10:45:45.783Z,102371.84
2023-05-19T10:48:14.788Z,102365.63
2023-05-19T10:50:44.144Z,102373.34
2023-05-19T10:53:13.555Z,102374.66
2023-05-19T10:55:43.176Z,102356.56
2023-05-19T10:58:12.575Z,102373.13
2023-05-19T11:00:41.802Z,102371.41
2023-05-19T11:03:11.146Z,102373.22
2023-05-19T11:05:40.075Z,102375.09
2023-05-19T11:08:09.516Z,102374.25
2023-05-19T11:10:38.456Z,102365.75
2023-05-19T11:13:07.383Z,102363.44
2023-05-19T11:15:36.832Z,102365.53
2023-05-19T11:18:06.336Z,102360.84
2023-05-19T11:20:35.425Z,102368.09
2023-05-19T11:23:05.020Z,102363.75
2023-05-19T11:25:34.533Z,102365.28
2023-05-19T11:28:03.776Z,102349.09
2023-05-19T11:30:33.023Z,102357.38
2023-05-19T11:33:02.028Z,102354.66
2023-05-19T11:35:33.841Z,102358.50
2023-05-19T11:38:04.106Z,102355.13
2023-05-19T11:40:32.995Z,102352.78
2023-05-19T11:43:02.309Z,102349.19
2023-05-19T11:45:31.574Z,102344.34
2023-05-19T11:48:03.006Z,102350.22
2023-05-19T11:50:32.291Z,102350.13
2023-05-19T11:53:02.368Z,102345.59
2023-05-19T11:55:32.036Z,102338.56
2023-05-19T11:58:05.191Z,102344.06
2023-05-19T12:00:35.196Z,102342.16
2023-05-19T12:03:04.318Z,102342.22
2023-05-19T12:05:36.594Z,102334.53
2023-05-19T12:08:08.797Z,102336.34
2023-05-19T12:10:38.181Z,102336.97
2023-05-19T12:13:07.426Z,102333.22
2023-05-19T12:15:36.775Z,102330.38
2023-05-19T12:18:05.416Z,102326.50
2023-05-19T12:20:33.667Z,102322.69
2023-05-19T12:23:02.927Z,102325.16
2023-05-19T12:25:31.670Z,102329.31
2023-05-19T12:28:00.186Z,102326.88
2023-05-19T12:30:29.575Z,102326.75
2023-05-19T12:32:58.999Z,102323.78
2023-05-19T12:35:28.750Z,102322.09
2023-05-19T12:37:57.532Z,102308.91
2023-05-19T12:40:26.257Z,102318.91
2023-05-19T12:42:55.124Z,102319.41
2023-05-19T12:45:24.137Z,102328.63
2023-05-19T12:47:53.494Z,102318.16
2023-05-19T12:50:22.344Z,102313.09
2023-05-19T12:52:50.832Z,102313.56
2023-05-19T12:55:19.907Z,102308.28
2023-05-19T12:57:50.502Z,102311.41
2023-05-19T13:00:19.904Z,102308.03
2023-05-19T13:02:49.247Z,102290.03
2023-05-19T13:05:18.142Z,102308.94
2023-05-19T13:07:51.637Z,102306.56
2023-05-19T13:10:21.037Z,102301.22
2023-05-19T13:12:49.857Z,102292.50
2023-05-19T13:15:18.788Z,102296.59
2023-05-19T13:17:47.573Z,102290.63
2023-05-19T13:20:16.367Z,102287.41
2023-05-19T13:22:45.804Z,102285.38
2023-05-19T13:25:15.350Z,102286.91
2023-05-19T13:27:44.730Z,102280.66
2023-05-19T13:30:14.160Z,102289.38
2023-05-19T13:32:43.567Z,102279.31
2023-05-19T13:35:12.446Z,102287.47
2023-05-19T13:37:41.979Z,102284.81
2023-05-19T13:40:10.659Z,102273.09
2023-05-19T13:42:39.460Z,102275.03
2023-05-19T13:45:08.472Z,102280.97
2023-05-19T13:47:37.900Z,102271.00
2023-05-19T13:50:07.334Z,102279.22
2023-05-19T13:52:36.765Z,102271.66
2023-05-19T13:55:06.371Z,102271.03
2023-05-19T13:57:35.328Z,102265.81
2023-05-19T14:00:04.459Z,102261.69
2023-05-19T14:02:56.289Z,102254.66
2023-05-19T14:05:25.670Z,102249.69
2023-05-19T14:07:54.944Z,102262.66
2023-05-19T14:10:24.301Z,102255.13
2023-05-19T14:15:27.509Z,102254.13
2023-05-19T14:17:56.911Z,102252.38
2023-05-19T14:20:28.633Z,102243.53
2023-05-19T14:22:58.293Z,102239.06
2023-05-19T14:25:27.167Z,102249.22
2023-05-19T14:27:56.381Z,102242.31
2023-05-19T14:30:25.333Z,102244.69
2023-05-19T14:32:54.241Z,102252.78
2023-05-19T14:35:24.000Z,102248.78
2023-05-19T14:37:53.390Z,102243.69
2023-05-19T14:40:22.795Z,102234.06
2023-05-19T14:42:51.710Z,102232.00
2023-05-19T14:45:20.859Z,102225.41
2023-05-19T14:47:50.213Z,102227.44
2023-05-19T14:50:19.286Z,102219.91
2023-05-19T14:52:48.110Z,102223.19
2023-05-19T14:55:16.904Z,102215.31
2023-05-19T14:57:46.257Z,102218.25
2023-05-19T15:00:15.108Z,102222.59
2023-05-19T15:02:44.377Z,102213.25
2023-05-19T15:05:13.522Z,102211.09
2023-05-19T15:07:42.297Z,102223.31
2023-05-19T15:10:11.651Z,102217.97
2023-05-19T15:12:40.438Z,102218.66
2023-05-19T15:15:09.297Z,102230.19
2023-05-19T15:17:38.667Z,102209.31
2023-05-19T15:20:07.590Z,102210.75
2023-05-19T15:22:36.401Z,102205.34
2023-05-19T15:25:05.199Z,102202.09
2023-05-19T15:27:34.500Z,102205.69
2023-05-19T15:30:03.584Z,102210.53
2023-05-19T15:32:32.429Z,102217.53
2023-05-19T15:35:01.969Z,102218.63
2023-05-19T15:37:30.826Z,102218.78
2023-05-19T15:39:59.706Z,102218.22
2023-05-19T15:42:28.745Z,102212.09
2023-05-19T15:44:58.047Z,102207.78
2023-05-19T15:47:26.901Z,102212.06
2023-05-19T15:49:56.349Z,102213.50
2023-05-19T15:52:25.753Z,102206.97
2023-05-19T15:54:54.786Z,102200.50
2023-05-19T15:57:23.157Z,102204.47
2023-05-19T15:59:52.075Z,102201.59
2023-05-19T16:02:21.355Z,102210.91
2023-05-19T16:04:50.924Z,102212.00
2023-05-19T16:07:20.418Z,102210.16
2023-05-19T16:09:49.384Z,102202.22
2023-05-19T16:12:18.840Z,102192.50
2023-05-19T16:14:47.683Z,102195.38
2023-05-19T16:17:16.925Z,102188.53
2023-05-19T16:19:45.759Z,102181.72
2023-05-19T16:22:14.559Z,102191.06
2023-05-19T16:24:43.414Z,102189.41
2023-05-19T16:27:12.820Z,102195.63
2023-05-19T16:29:42.115Z,102189.91
2023-05-19T16:32:11.128Z,102181.25
2023-05-19T16:34:40.688Z,102184.81
2023-05-19T16:37:09.644Z,102181.94
2023-05-19T16:39:38.944Z,102177.25
2023-05-19T16:42:08.367Z,102188.94
2023-05-19T16:44:37.243Z,102182.31
2023-05-19T16:47:06.538Z,102186.97
2023-05-19T16:49:35.811Z,102183.34
2023-05-19T16:52:05.156Z,102180.28
2023-05-19T16:54:34.319Z,102182.59
2023-05-19T16:57:03.123Z,102183.66
2023-05-19T16:59:32.236Z,102177.88
2023-05-19T17:02:00.734Z,102173.56
2023-05-19T17:04:30.742Z,102177.47
2023-05-19T17:06:59.883Z,102171.41
2023-05-19T17:09:29.192Z,102179.28
2023-05-19T17:11:58.466Z,102187.88
2023-05-19T17:14:27.888Z,102180.31
2023-05-19T17:16:57.372Z,102179.19
2023-05-19T17:19:26.701Z,102178.84
2023-05-19T17:21:55.154Z,102179.91
2023-05-19T17:24:24.532Z,102172.31
2023-05-19T17:26:53.399Z,102179.50
2023-05-19T17:29:22.750Z,102181.63
2023-05-19T17:31:52.074Z,102172.59
2023-05-19T17:34:21.321Z,102184.75
2023-05-19T17:36:50.609Z,102188.69
2023-05-19T17:39:19.470Z,102189.53
2023-05-19T17:41:48.878Z,102194.53
2023-05-19T17:44:18.256Z,102195.38
2023-05-19T17:46:47.856Z,102197.88
2023-05-19T17:49:17.317Z,102198.22
2023-05-19T17:51:46.196Z,102195.31
2023-05-19T17:54:15.605Z,102189.19
2023-05-19T17:56:44.679Z,102191.69
2023-05-19T17:59:13.349Z,102194.59
2023-05-19T18:01:42.140Z,102195.66
2023-05-19T18:04:12.614Z,102192.22
2023-05-19T18:06:43.188Z,102191.31
2023-05-19T18:09:12.044Z,102195.25
2023-05-19T18:11:41.079Z,102189.47
2023-05-19T18:14:10.488Z,102196.59
2023-05-19T18:16:39.879Z,102198.38
2023-05-19T18:19:09.231Z,102198.19
2023-05-19T18:21:38.709Z,102201.91
2023-05-19T18:24:08.213Z,102199.00
2023-05-19T18:26:37.548Z,102200.06
2023-05-19T18:29:07.028Z,102197.19
2023-05-19T18:31:36.441Z,102197.47
2023-05-19T18:34:05.831Z,102197.81
2023-05-19T18:36:34.620Z,102200.28
2023-05-19T18:39:04.000Z,102209.63
2023-05-19T18:41:32.878Z,102212.09
2023-05-19T18:44:02.380Z,102209.91
2023-05-19T18:46:31.406Z,102214.41
2023-05-19T18:49:00.960Z,102212.72
2023-05-19T18:51:30.345Z,102213.75
2023-05-19T18:53:59.690Z,102216.25
2023-05-19T18:56:29.308Z,102215.81
2023-05-19T18:58:58.840Z,102219.75
2023-05-19T19:01:28.333Z,102221.53
2023-05-19T19:03:57.704Z,102221.84
2023-05-19T19:06:27.023Z,102222.88
2023-05-19T19:08:56.546Z,102230.75
2023-05-19T19:11:25.986Z,102223.19
2023-05-19T19:13:54.855Z,102231.78
2023-05-19T19:16:24.095Z,102227.41
2023-05-19T19:18:53.681Z,102232.78
2023-05-19T19:21:22.645Z,102236.75
2023-05-19T19:23:51.573Z,102245.28
2023-05-19T19:26:20.428Z,102247.28
2023-05-19T19:28:49.210Z,102241.72
2023-05-19T19:31:18.030Z,102244.16
2023-05-19T19:33:46.623Z,102246.63
2023-05-19T19:36:14.828Z,102245.19
2023-05-19T19:38:43.481Z,102243.53
2023-05-19T19:41:12.182Z,102251.59
2023-05-19T19:43:41.564Z,102256.78
2023-05-19T19:46:10.432Z,102256.53
2023-05-19T19:48:39.279Z,102262.47
2023-05-19T19:51:07.913Z,102262.97
2023-05-19T19:53:36.772Z,102266.19
2023-05-19T19:56:06.123Z,102270.09
2023-05-19T19:58:35.520Z,102273.28
2023-05-19T20:01:04.492Z,102277.94
2023-05-19T20:03:33.490Z,102277.00
2023-05-19T20:06:02.656Z,102280.94
2023-05-19T20:08:31.481Z,102280.72
2023-05-19T20:11:01.120Z,102278.53
2023-05-19T20:13:30.794Z,102272.47
2023-05-19T20:16:01.595Z,102281.75
2023-05-19T20:18:31.032Z,102284.22
2023-05-19T20:21:00.406Z,102278.13
2023-05-19T20:23:29.840Z,102286.69
2023-05-19T20:26:11.097Z,102286.69
2023-05-19T20:28:41.926Z,102278.44
2023-05-19T20:31:14.349Z,102282.38
2023-05-19T20:33:43.134Z,102285.53
2023-05-19T20:36:12.569Z,102284.84
2023-05-19T20:38:41.900Z,102286.78
2023-05-19T20:41:11.349Z,102291.19
2023-05-19T20:43:40.311Z,102289.75
2023-05-19T20:46:09.399Z,102292.97
2023-05-19T20:48:38.252Z,102295.63
2023-05-19T20:51:07.637Z,102298.88
2023-05-19T20:53:37.000Z,102290.56
2023-05-19T20:56:05.650Z,102293.25
2023-05-19T20:58:34.385Z,102297.16
2023-05-19T21:01:03.317Z,102295.75
2023-05-19T21:03:32.732Z,102296.97
2023-05-19T21:06:02.028Z,102296.75
2023-05-19T21:08:31.110Z,102290.69
2023-05-19T21:10:59.902Z,102299.94
2023-05-19T21:13:29.153Z,102308.50
2023-05-19T21:15:57.998Z,102307.06
2023-05-19T21:18:27.426Z,102304.16
2023-05-19T21:20:56.812Z,102301.28
2023-05-19T21:23:25.759Z,102303.94
2023-05-19T21:25:55.042Z,102305.19
2023-05-19T21:28:23.979Z,102310.56
2023-05-19T21:30:53.398Z,102313.03
2023-05-19T21:33:22.280Z,102317.69
2023-05-19T21:35:51.241Z,102320.88
2023-05-19T21:38:23.943Z,102319.44
2023-05-19T21:40:52.666Z,102320.47
2023-05-19T21:43:22.066Z,102319.19
2023-05-19T21:45:51.019Z,102315.09
2023-05-19T21:48:20.464Z,102324.34
2023-05-19T21:50:49.791Z,102322.91
2023-05-19T21:53:18.670Z,102321.44
2023-05-19T21:55:47.950Z,102323.94
2023-05-19T21:58:17.332Z,102320.50
2023-05-19T22:00:46.250Z,102321.00
2023-05-19T22:03:15.284Z,102318.31
2023-05-19T22:05:44.388Z,102319.56
2023-05-19T22:08:13.019Z,102318.13
2023-05-19T22:10:42.240Z,102316.66
2023-05-19T22:13:11.527Z,102315.22
2023-05-19T22:15:40.795Z,102307.69
2023-05-19T22:18:10.089Z,102312.31
2023-05-19T22:20:42.656Z,102313.53
2023-05-19T22:23:11.465Z,102311.59
2023-05-19T22:25:40.787Z,102316.22
2023-05-19T22:28:09.447Z,102326.25
2023-05-19T22:30:39.302Z,102316.75
2023-05-19T22:33:10.134Z,102327.97
2023-05-19T22:35:39.005Z,102329.22
2023-05-19T22:38:10.497Z,102327.25
2023-05-19T22:40:39.915Z,102331.19
2023-05-19T22:43:08.230Z,102331.91
2023-05-19T22:45:37.169Z,102325.09
2023-05-19T22:48:06.831Z,102327.53
2023-05-19T22:50:36.355Z,102322.19
2023-05-19T22:53:05.861Z,102322.19
2023-05-19T22:55:35.407Z,102323.41
2023-05-19T22:58:04.644Z,102320.72
2023-05-19T23:00:33.168Z,102312.44
2023-05-19T23:03:02.085Z,102319.28
2023-05-19T23:05:31.618Z,102308.13
2023-05-19T23:08:00.688Z,102317.81
2023-05-19T23:10:29.695Z,102314.94
2023-05-19T23:12:59.115Z,102318.84
2023-05-19T23:15:28.432Z,102313.50
2023-05-19T23:17:57.796Z,102317.38
2023-05-19T23:20:27.217Z,102315.22
2023-05-19T23:22:56.592Z,102312.31
2023-05-19T23:25:25.447Z,102321.09
2023-05-19T23:27:54.829Z,102315.53
2023-05-19T23:30:23.781Z,102321.59
2023-05-19T23:32:53.177Z,102314.78
2023-05-19T23:35:22.531Z,102315.28
2023-05-19T23:37:51.404Z,102312.59
2023-05-19T23:40:20.270Z,102307.25
2023-05-19T23:42:49.746Z,102316.53
2023-05-19T23:45:19.159Z,102312.59
2023-05-19T23:47:48.563Z,102315.09
2023-05-19T23:50:17.091Z,102309.72
2023-05-19T23:52:45.293Z,102314.34
2023-05-19T23:55:14.531Z,102312.16
2023-05-19T23:57:43.869Z,102312.16
